PWSweather.com
Personal Weather Stations
Station Observations

BisignanoIT

Lat: 39.5, Lon: 16.2744

Elevation: 235

Station Type: pce fws 20

http://stazionemeteobisignano.altervista.org/

Latest ConditionsUpdated 7:40:06 AM GMT+01:01 Wednesday, Apr 25, 2018
Currently Today's Max Today's Min Today's Average
Temperature 64.0°F17.8°C 64.0°F17.8°C 56.8°F13.8°C 59.2°F15.1°C
Dew Point 50.8°F10.4°C 50.8°F10.4°C 45.7°F7.6°C 47.9°F8.8°C
Winds 1.1 mph SW1.8 kmh SW 2.5 mph N4.0 kmh N - 0.9 mph 1.4 kmh
Wind Gusts 2.2 mph3.5 kmh 3.1 mph5.0 kmh - -
Humidity 62% 71% 61% 66%
Pressure 30.08 in1018.6 mb 30.09 in1019.0 mb 30.07 in1018.3 mb -
Hour Temp Dew Point Humidity Winds Wind Gusts Pressure Precip Precip Rate Daily Precip Total
07:40 AM 64.0°F17.8°C 50.8°F10.4°C 62% 1.1 mph SW1.8 kmh SW 2.2 mph3.5 kmh 30.08 in1018.6 mb 0.00 in0.0 mm 0.00 in0.0 mm 0.00 in0.0 mm
07:30 AM 63.0°F17.2°C 49.3°F9.6°C 61% 0.1 mph E0.2 kmh E 0.7 mph1.1 kmh 30.08 in1018.6 mb 0.00 in0.0 mm 0.00 in0.0 mm 0.00 in0.0 mm
07:20 AM 61.7°F16.5°C 48.6°F9.2°C 62% 0.3 mph SE0.5 kmh SE 1.6 mph2.6 kmh 30.08 in1018.6 mb 0.00 in0.0 mm 0.00 in0.0 mm 0.00 in0.0 mm
07:10 AM 61.3°F16.3°C 48.7°F9.3°C 63% 0.1 mph SE0.2 kmh SE 0.7 mph1.1 kmh 30.08 in1018.6 mb 0.00 in0.0 mm 0.00 in0.0 mm 0.00 in0.0 mm
07:00 AM 59.9°F15.5°C 47.7°F8.7°C 64% 0.5 mph SE0.8 kmh SE 1.6 mph2.6 kmh 30.08 in1018.6 mb 0.00 in0.0 mm 0.00 in0.0 mm 0.00 in0.0 mm
06:50 AM 59.7°F15.4°C 47.5°F8.6°C 64% 1.2 mph SE1.9 kmh SE 2.2 mph3.5 kmh 30.08 in1018.6 mb 0.00 in0.0 mm 0.00 in0.0 mm 0.00 in0.0 mm
06:40 AM 59.2°F15.1°C 47.0°F8.3°C 64% 0.5 mph SW0.8 kmh SW 0.7 mph1.1 kmh 30.08 in1018.6 mb 0.00 in0.0 mm 0.00 in0.0 mm 0.00 in0.0 mm
06:30 AM 58.6°F14.8°C 46.9°F8.3°C 65% 0.7 mph NNW1.1 kmh NNW 1.6 mph2.6 kmh 30.08 in1018.6 mb 0.00 in0.0 mm 0.00 in0.0 mm 0.00 in0.0 mm
06:20 AM 58.6°F14.8°C 46.5°F8.1°C 64% 1.4 mph WSW2.3 kmh WSW 2.2 mph3.5 kmh 30.08 in1018.6 mb 0.00 in0.0 mm 0.00 in0.0 mm 0.00 in0.0 mm
06:10 AM 58.8°F14.9°C 46.3°F7.9°C 63% 0.7 mph SE1.1 kmh SE 2.2 mph3.5 kmh 30.07 in1018.3 mb 0.00 in0.0 mm 0.00 in0.0 mm 0.00 in0.0 mm
06:00 AM 59.0°F15.0°C 46.0°F7.8°C 62% 0.7 mph NNW1.1 kmh NNW 1.6 mph2.6 kmh 30.07 in1018.3 mb 0.00 in0.0 mm 0.00 in0.0 mm 0.00 in0.0 mm
05:50 AM 58.6°F14.8°C 46.1°F7.8°C 63% 1.0 mph N1.6 kmh N 2.2 mph3.5 kmh 30.07 in1018.3 mb 0.00 in0.0 mm 0.00 in0.0 mm 0.00 in0.0 mm
05:40 AM 58.5°F14.7°C 45.9°F7.7°C 63% 1.4 mph N2.3 kmh N 3.1 mph5.0 kmh 30.07 in1018.3 mb 0.00 in0.0 mm 0.00 in0.0 mm 0.00 in0.0 mm
05:30 AM 57.7°F14.3°C 45.7°F7.6°C 64% 2.5 mph N4.0 kmh N 3.1 mph5.0 kmh 30.08 in1018.6 mb 0.00 in0.0 mm 0.00 in0.0 mm 0.00 in0.0 mm
05:20 AM 57.9°F14.4°C 45.8°F7.7°C 64% 0.6 mph E1.0 kmh E 1.6 mph2.6 kmh 30.08 in1018.6 mb 0.00 in0.0 mm 0.00 in0.0 mm 0.00 in0.0 mm
05:10 AM 57.7°F14.3°C 45.7°F7.6°C 64% 0.1 mph NW0.2 kmh NW 1.6 mph2.6 kmh 30.08 in1018.6 mb 0.00 in0.0 mm 0.00 in0.0 mm 0.00 in0.0 mm
05:00 AM 57.7°F14.3°C 46.1°F7.8°C 65% 1.2 mph NNW1.9 kmh NNW 2.2 mph3.5 kmh 30.08 in1018.6 mb 0.00 in0.0 mm 0.00 in0.0 mm 0.00 in0.0 mm
04:50 AM 57.9°F14.4°C 46.2°F7.9°C 65% 0.5 mph WNW0.8 kmh WNW 1.6 mph2.6 kmh 30.08 in1018.6 mb 0.00 in0.0 mm 0.00 in0.0 mm 0.00 in0.0 mm
04:40 AM 58.3°F14.6°C 46.6°F8.1°C 65% 1.0 mph W1.6 kmh W 1.6 mph2.6 kmh 30.08 in1018.6 mb 0.00 in0.0 mm 0.00 in0.0 mm 0.00 in0.0 mm
04:30 AM 57.9°F14.4°C 46.6°F8.1°C 66% 0.4 mph S0.6 kmh S 0.7 mph1.1 kmh 30.08 in1018.6 mb 0.00 in0.0 mm 0.00 in0.0 mm 0.00 in0.0 mm
04:20 AM 57.0°F13.9°C 47.0°F8.3°C 69% 0.4 mph SE0.6 kmh SE 1.6 mph2.6 kmh 30.08 in1018.6 mb 0.00 in0.0 mm 0.00 in0.0 mm 0.00 in0.0 mm
04:10 AM 56.8°F13.8°C 47.2°F8.4°C 70% 0.5 mph SE0.8 kmh SE 1.6 mph2.6 kmh 30.08 in1018.6 mb 0.00 in0.0 mm 0.00 in0.0 mm 0.00 in0.0 mm
04:00 AM 57.0°F13.9°C 47.7°F8.7°C 71% 0.8 mph NE1.3 kmh NE 1.6 mph2.6 kmh 30.08 in1018.6 mb 0.00 in0.0 mm 0.00 in0.0 mm 0.00 in0.0 mm
03:50 AM 57.6°F14.2°C 47.1°F8.4°C 68% 0.9 mph NE1.4 kmh NE 1.6 mph2.6 kmh 30.08 in1018.6 mb 0.00 in0.0 mm 0.00 in0.0 mm 0.00 in0.0 mm
03:40 AM 58.3°F14.6°C 47.4°F8.6°C 67% 0.4 mph NE0.6 kmh NE 1.6 mph2.6 kmh 30.08 in1018.6 mb 0.00 in0.0 mm 0.00 in0.0 mm 0.00 in0.0 mm
03:30 AM 58.8°F14.9°C 47.9°F8.8°C 67% 0.4 mph NE0.6 kmh NE 1.6 mph2.6 kmh 30.08 in1018.6 mb 0.00 in0.0 mm 0.00 in0.0 mm 0.00 in0.0 mm
03:20 AM 58.8°F14.9°C 47.9°F8.8°C 67% 0.7 mph NE1.1 kmh NE 1.6 mph2.6 kmh 30.08 in1018.6 mb 0.00 in0.0 mm 0.00 in0.0 mm 0.00 in0.0 mm
03:10 AM 58.6°F14.8°C 47.7°F8.7°C 67% 0.9 mph NE1.4 kmh NE 1.6 mph2.6 kmh 30.08 in1018.6 mb 0.00 in0.0 mm 0.00 in0.0 mm 0.00 in0.0 mm
03:00 AM 58.8°F14.9°C 47.9°F8.8°C 67% 1.0 mph NE1.6 kmh NE 2.2 mph3.5 kmh 30.08 in1018.6 mb 0.00 in0.0 mm 0.00 in0.0 mm 0.00 in0.0 mm
02:50 AM 58.6°F14.8°C 48.1°F8.9°C 68% 1.9 mph NE3.1 kmh NE 2.2 mph3.5 kmh 30.08 in1018.6 mb 0.00 in0.0 mm 0.00 in0.0 mm 0.00 in0.0 mm
02:40 AM 58.8°F14.9°C 48.3°F9.1°C 68% 1.7 mph NE2.7 kmh NE 2.2 mph3.5 kmh 30.08 in1018.6 mb 0.00 in0.0 mm 0.00 in0.0 mm 0.00 in0.0 mm
02:30 AM 59.0°F15.0°C 48.1°F8.9°C 67% 0.1 mph NE0.2 kmh NE 0.7 mph1.1 kmh 30.07 in1018.3 mb 0.00 in0.0 mm 0.00 in0.0 mm 0.00 in0.0 mm
02:20 AM 59.4°F15.2°C 48.4°F9.1°C 67% 0.6 mph NE1.0 kmh NE 1.6 mph2.6 kmh 30.07 in1018.3 mb 0.00 in0.0 mm 0.00 in0.0 mm 0.00 in0.0 mm
02:10 AM 59.4°F15.2°C 48.8°F9.3°C 68% 0.8 mph NE1.3 kmh NE 1.6 mph2.6 kmh 30.07 in1018.3 mb 0.00 in0.0 mm 0.00 in0.0 mm 0.00 in0.0 mm
02:00 AM 59.5°F15.3°C 49.0°F9.4°C 68% 1.6 mph NE2.6 kmh NE 2.2 mph3.5 kmh 30.07 in1018.3 mb 0.00 in0.0 mm 0.00 in0.0 mm 0.00 in0.0 mm
01:50 AM 59.5°F15.3°C 49.0°F9.4°C 68% 2.2 mph N3.5 kmh N 3.1 mph5.0 kmh 30.08 in1018.6 mb 0.00 in0.0 mm 0.00 in0.0 mm 0.00 in0.0 mm
01:40 AM 59.4°F15.2°C 49.2°F9.6°C 69% 1.1 mph W1.8 kmh W 2.2 mph3.5 kmh 30.08 in1018.6 mb 0.00 in0.0 mm 0.00 in0.0 mm 0.00 in0.0 mm
01:30 AM 59.0°F15.0°C 49.2°F9.6°C 70% 0.4 mph N0.6 kmh N 1.6 mph2.6 kmh 30.08 in1018.6 mb 0.00 in0.0 mm 0.00 in0.0 mm 0.00 in0.0 mm
01:20 AM 59.2°F15.1°C 49.4°F9.7°C 70% 1.4 mph N2.3 kmh N 2.2 mph3.5 kmh 30.09 in1019.0 mb 0.00 in0.0 mm 0.00 in0.0 mm 0.00 in0.0 mm
01:10 AM 59.4°F15.2°C 49.6°F9.8°C 70% 2.0 mph N3.2 kmh N 2.2 mph3.5 kmh 30.08 in1018.6 mb 0.00 in0.0 mm 0.00 in0.0 mm 0.00 in0.0 mm
01:00 AM 59.4°F15.2°C 48.8°F9.3°C 68% 1.2 mph N1.9 kmh N 2.2 mph3.5 kmh 30.08 in1018.6 mb 0.00 in0.0 mm 0.00 in0.0 mm 0.00 in0.0 mm
12:50 AM 60.1°F15.6°C 49.5°F9.7°C 68% 1.1 mph N1.8 kmh N 2.2 mph3.5 kmh 30.09 in1019.0 mb 0.00 in0.0 mm 0.00 in0.0 mm 0.00 in0.0 mm
12:40 AM 60.4°F15.8°C 49.8°F9.9°C 68% 1.2 mph N1.9 kmh N 2.2 mph3.5 kmh 30.09 in1019.0 mb 0.00 in0.0 mm 0.00 in0.0 mm 0.00 in0.0 mm
12:30 AM 60.4°F15.8°C 49.8°F9.9°C 68% 1.8 mph N2.9 kmh N 2.2 mph3.5 kmh 30.08 in1018.6 mb 0.00 in0.0 mm 0.00 in0.0 mm 0.00 in0.0 mm
12:20 AM 60.3°F15.7°C 49.3°F9.6°C 67% 0.4 mph N0.6 kmh N 1.6 mph2.6 kmh 30.09 in1019.0 mb 0.00 in0.0 mm 0.00 in0.0 mm 0.00 in0.0 mm
12:10 AM 60.4°F15.8°C 49.4°F9.7°C 67% 0.6 mph N1.0 kmh N 0.7 mph1.1 kmh 30.09 in1019.0 mb 0.00 in0.0 mm 0.00 in0.0 mm 0.00 in0.0 mm
12:00 AM 60.4°F15.8°C 49.4°F9.7°C 67% 0.4 mph W0.6 kmh W 1.6 mph2.6 kmh 30.09 in1019.0 mb 0.00 in0.0 mm 0.00 in0.0 mm 0.00 in0.0 mm